Time;durP1;ratioP1;P1;durP2;ratioP2;P2;SDS_P1;SDS_P2;PMS_P1;PMS_P2;Temp;Humidity;BMP_temperature;BMP_pressure;BME280_temperature;BME280_humidity;BME280_pressure;Samples;Min_cycle;Max_cycle;Signal;HPM_P1;HPM_P2
2021/10/22 00:00:25;;;;;;;0.25;0.20;;;;;;;24.89;24.43;94105.50;4989963;28;20061;-83
2021/10/22 00:02:50;;;;;;;0.60;0.40;;;;;;;24.88;24.42;94109.22;5005302;28;20026;-83
2021/10/22 00:05:20;;;;;;;0.70;0.30;;;;;;;24.94;24.03;94107.25;5000170;28;20120;-83
2021/10/22 00:07:46;;;;;;;;;;;;;;;25.11;24.61;94109.31;4992572;28;20042;-83
2021/10/22 00:10:11;;;;;;;0.60;0.40;;;;;;;24.96;24.26;94103.22;5003933;28;19913;-83
2021/10/22 00:12:39;;;;;;;0.50;0.40;;;;;;;24.94;24.40;94102.75;4997879;28;20283;-83
2021/10/22 00:15:09;;;;;;;0.20;0.20;;;;;;;24.91;24.32;94100.66;5015967;28;20105;-83
2021/10/22 00:17:36;;;;;;;0.73;0.30;;;;;;;24.93;24.56;94103.03;4991889;28;20041;-83
2021/10/22 00:20:03;;;;;;;0.80;0.40;;;;;;;24.92;24.42;94109.41;4987304;28;20034;-83
2021/10/22 00:22:29;;;;;;;0.47;0.28;;;;;;;24.90;24.81;94107.09;5000365;28;20045;-83
2021/10/22 00:24:54;;;;;;;0.50;0.40;;;;;;;24.91;24.93;94100.66;4977397;28;20027;-83
2021/10/22 00:27:23;;;;;;;0.60;0.40;;;;;;;24.93;24.86;94095.84;5000703;28;20026;-83
2021/10/22 00:29:48;;;;;;;0.47;0.30;;;;;;;24.92;24.70;94101.44;4978882;28;20041;-83
2021/10/22 00:32:14;;;;;;;0.93;0.40;;;;;;;24.95;24.67;94106.97;4971892;28;20035;-83
2021/10/22 00:34:40;;;;;;;0.50;0.40;;;;;;;24.90;25.01;94096.44;4970065;28;20034;-83
2021/10/22 00:37:05;;;;;;;0.90;0.30;;;;;;;24.91;24.96;94098.00;4999088;28;20053;-83
2021/10/22 00:39:33;;;;;;;0.82;0.40;;;;;;;24.94;25.11;94101.94;4990190;28;20038;-83
2021/10/22 00:41:59;;;;;;;0.30;0.30;;;;;;;24.98;25.16;94105.59;5014497;28;20041;-84
2021/10/22 00:44:25;;;;;;;0.90;0.40;;;;;;;24.99;25.08;94112.47;4970290;28;20127;-83
2021/10/22 00:46:53;;;;;;;0.50;0.20;;;;;;;25.04;25.08;94108.97;4956173;28;20031;-83
2021/10/22 00:49:21;;;;;;;0.57;0.38;;;;;;;25.00;24.67;94110.59;4974527;28;20060;-83
2021/10/22 00:51:46;;;;;;;0.50;0.30;;;;;;;25.02;24.99;94119.06;4989261;28;20026;-83
2021/10/22 00:54:19;;;;;;;0.50;0.30;;;;;;;25.08;25.25;94113.38;5014721;28;20034;-83
2021/10/22 00:56:47;;;;;;;0.40;0.30;;;;;;;25.10;25.28;94118.41;4985786;28;20038;-83
2021/10/22 00:59:15;;;;;;;0.77;0.50;;;;;;;25.05;25.22;94113.19;4971817;28;20027;-83
2021/10/22 01:01:41;;;;;;;0.45;0.30;;;;;;;25.03;25.66;94118.78;4988191;28;20030;-83
2021/10/22 01:04:08;;;;;;;0.38;0.30;;;;;;;25.03;25.57;94115.34;4991805;28;20041;-84
2021/10/22 01:06:39;;;;;;;0.50;0.30;;;;;;;25.13;25.59;94117.78;4991129;28;20055;-83
2021/10/22 01:09:08;;;;;;;0.82;0.40;;;;;;;25.16;25.68;94125.19;4995251;28;20022;-83
2021/10/22 01:11:34;;;;;;;0.70;0.40;;;;;;;25.09;25.68;94122.94;4989197;28;20030;-83
2021/10/22 01:14:01;;;;;;;1.25;0.30;;;;;;;25.12;25.68;94129.53;4991722;28;20260;-83
2021/10/22 01:16:29;;;;;;;0.32;0.30;;;;;;;25.11;25.87;94117.31;4968677;28;20344;-83
2021/10/22 01:18:55;;;;;;;0.40;0.30;;;;;;;25.12;26.01;94121.56;4984681;28;20030;-83
2021/10/22 01:21:20;;;;;;;0.60;0.40;;;;;;;25.14;26.07;94122.81;4978934;28;20034;-83
2021/10/22 01:23:48;;;;;;;0.47;0.30;;;;;;;25.16;25.82;94125.19;4988908;28;20528;-83
2021/10/22 01:26:14;;;;;;;0.30;0.30;;;;;;;25.15;25.96;94119.09;4991447;28;20038;-83
2021/10/22 01:28:39;;;;;;;0.40;0.40;;;;;;;25.17;26.10;94121.47;4987175;28;20162;-83
2021/10/22 01:31:05;;;;;;;0.30;0.30;;;;;;;25.15;26.09;94110.31;5000292;28;20066;-83
2021/10/22 01:33:33;;;;;;;1.02;0.50;;;;;;;25.19;25.99;94113.97;4991435;28;20030;-83
2021/10/22 01:35:58;;;;;;;0.30;0.30;;;;;;;25.18;25.84;94109.72;4995853;28;20069;-83
2021/10/22 01:38:27;;;;;;;0.52;0.32;;;;;;;25.19;25.82;94113.97;4983927;28;20026;-83
2021/10/22 01:40:58;;;;;;;0.75;0.40;;;;;;;25.20;26.01;94106.78;4976981;28;20080;-83
2021/10/22 01:43:24;;;;;;;1.02;0.30;;;;;;;25.23;26.38;94114.22;4978053;28;20051;-83
2021/10/22 01:45:49;;;;;;;0.80;0.35;;;;;;;25.23;26.18;94120.31;5009246;28;20169;-83
2021/10/22 01:48:15;;;;;;;0.60;0.35;;;;;;;25.20;26.04;94117.41;4973291;28;20051;-83
2021/10/22 01:50:45;;;;;;;0.70;0.30;;;;;;;25.28;26.10;94125.50;4993378;28;20030;-83
2021/10/22 01:53:16;;;;;;;0.43;0.30;;;;;;;25.32;25.95;94121.19;4988924;28;20030;-83
2021/10/22 01:55:42;;;;;;;0.60;0.30;;;;;;;25.26;26.09;94124.25;4972564;28;20030;-83
2021/10/22 01:58:08;;;;;;;0.68;0.40;;;;;;;25.25;26.06;94120.78;4998077;28;20034;-83
2021/10/22 02:00:34;;;;;;;0.93;0.30;;;;;;;25.24;26.01;94113.09;5006823;28;20034;-83
2021/10/22 02:03:05;;;;;;;0.47;0.30;;;;;;;25.25;26.33;94115.47;4974207;28;20034;-83
2021/10/22 02:05:31;;;;;;;0.43;0.35;;;;;;;25.30;26.23;94123.38;4986350;28;20042;-83
2021/10/22 02:07:58;;;;;;;0.60;0.30;;;;;;;25.18;26.29;94107.84;4997273;28;20033;-83
2021/10/22 02:10:24;;;;;;;0.70;0.30;;;;;;;25.30;26.32;94123.38;4978201;28;20050;-83
2021/10/22 02:12:49;;;;;;;0.55;0.35;;;;;;;25.30;26.39;94126.03;4999310;28;20040;-83
2021/10/22 02:15:15;;;;;;;0.30;0.30;;;;;;;25.30;26.27;94128.69;4996884;28;20032;-83
2021/10/22 02:17:40;;;;;;;0.47;0.45;;;;;;;25.32;26.08;94131.03;4981168;28;20034;-83
2021/10/22 02:20:06;;;;;;;0.30;0.30;;;;;;;25.28;26.39;94125.50;4992350;28;20026;-83
2021/10/22 02:22:32;;;;;;;0.50;0.30;;;;;;;25.31;26.40;94129.47;5003553;28;20034;-83
2021/10/22 02:24:57;;;;;;;1.27;0.40;;;;;;;25.32;26.40;94131.84;4978099;28;20030;-84
2021/10/22 02:27:25;;;;;;;0.50;0.30;;;;;;;25.33;26.25;94128.06;5001597;28;20034;-83
2021/10/22 02:29:50;;;;;;;1.10;0.50;;;;;;;25.31;26.52;94129.47;4985467;28;20085;-83
2021/10/22 02:32:18;;;;;;;0.50;0.30;;;;;;;25.30;26.48;94133.19;4965556;28;20030;-83
2021/10/22 02:34:45;;;;;;;0.82;0.40;;;;;;;25.30;26.44;94125.22;5009866;28;20037;-83
2021/10/22 02:37:12;;;;;;;0.28;0.28;;;;;;;25.32;26.54;94133.69;4994143;28;20114;-83
2021/10/22 02:39:40;;;;;;;0.50;0.35;;;;;;;25.36;26.46;94132.03;4984799;28;20034;-83
2021/10/22 02:42:05;;;;;;;0.45;0.30;;;;;;;25.32;26.55;94131.84;4991306;28;20050;-83
2021/10/22 02:44:31;;;;;;;0.32;0.30;;;;;;;25.31;26.51;94140.91;4962051;28;20037;-83
2021/10/22 02:46:56;;;;;;;0.38;0.30;;;;;;;25.30;26.55;94139.34;4994668;28;20042;-83
2021/10/22 02:49:22;;;;;;;0.95;0.38;;;;;;;25.31;26.51;94132.13;4991949;28;20030;-83
2021/10/22 02:51:52;;;;;;;0.30;0.30;;;;;;;25.33;26.67;94135.28;4993803;28;20030;-83
2021/10/22 02:54:25;;;;;;;0.43;0.30;;;;;;;25.30;26.34;94120.72;4999598;28;20104;-83
2021/10/22 02:56:51;;;;;;;0.32;0.30;;;;;;;25.32;26.75;94129.19;5022119;28;20045;-83
2021/10/22 02:59:19;;;;;;;0.60;0.40;;;;;;;25.33;26.56;94132.63;4996939;28;20029;-83
2021/10/22 03:01:44;;;;;;;0.57;0.35;;;;;;;25.30;26.72;94120.72;4976969;28;20038;-83
2021/10/22 03:04:12;;;;;;;0.30;0.30;;;;;;;25.33;26.33;94136.06;4977387;28;20049;-83
2021/10/22 03:06:38;;;;;;;0.30;0.30;;;;;;;25.33;26.48;94132.63;4967776;28;20026;-83
2021/10/22 03:09:05;;;;;;;1.17;0.32;;;;;;;25.33;26.57;94132.63;4994348;28;20025;-83
2021/10/22 03:11:35;;;;;;;1.10;0.40;;;;;;;25.36;26.33;94132.03;4978385;28;20034;-83
2021/10/22 03:14:01;;;;;;;;;;;;;;;25.54;26.23;94127.66;4998110;28;20026;-83
2021/10/22 03:16:26;;;;;;;0.43;0.30;;;;;;;25.40;26.16;94132.22;4993219;28;19944;-83
2021/10/22 03:18:51;;;;;;;0.52;0.30;;;;;;;25.37;26.28;94125.63;5012157;28;20026;-83
2021/10/22 03:21:19;;;;;;;0.82;0.30;;;;;;;25.44;26.12;94138.53;5001361;28;20044;-83
2021/10/22 03:23:45;;;;;;;0.82;0.30;;;;;;;25.33;26.37;94130.75;5003345;28;20141;-83
2021/10/22 03:26:11;;;;;;;0.77;0.40;;;;;;;25.35;26.37;94131.22;4992412;28;20030;-83
2021/10/22 03:28:36;;;;;;;0.30;0.30;;;;;;;25.35;26.07;94136.56;4993299;28;20038;-83
2021/10/22 03:31:04;;;;;;;0.77;0.43;;;;;;;25.32;25.63;94134.50;4984335;28;20049;-83
2021/10/22 03:33:29;;;;;;;0.63;0.40;;;;;;;25.28;26.00;94136.16;4987767;28;20117;-83
2021/10/22 03:35:57;;;;;;;0.68;0.40;;;;;;;25.33;25.83;94138.72;5002437;28;20050;-83
2021/10/22 03:38:27;;;;;;;0.68;0.47;;;;;;;25.29;25.63;94137.75;5003267;28;20048;-83
2021/10/22 03:40:53;;;;;;;0.50;0.35;;;;;;;25.33;25.95;94143.25;4976005;28;20037;-83
2021/10/22 03:43:18;;;;;;;0.63;0.30;;;;;;;25.28;25.88;94141.47;4995820;28;20035;-83
2021/10/22 03:45:44;;;;;;;0.20;0.20;;;;;;;25.31;25.87;94148.88;4977204;28;20286;-83
2021/10/22 03:48:09;;;;;;;0.63;0.60;;;;;;;25.30;25.75;94149.97;4978943;28;20038;-83
2021/10/22 03:50:35;;;;;;;0.95;0.40;;;;;;;25.29;25.61;94159.03;4977568;28;20038;-83
2021/10/22 03:53:00;;;;;;;1.55;0.40;;;;;;;25.27;25.70;94150.56;4999807;28;20038;-83
2021/10/22 03:55:26;;;;;;;1.08;0.40;;;;;;;25.27;26.11;94149.78;4967340;28;20046;-83
2021/10/22 03:57:51;;;;;;;0.55;0.40;;;;;;;25.28;25.83;94157.44;4990792;28;20030;-83
2021/10/22 04:00:17;;;;;;;1.35;0.40;;;;;;;25.30;25.61;94154.50;4978689;28;20034;-83
2021/10/22 04:02:44;;;;;;;1.38;0.40;;;;;;;25.26;25.67;94156.19;4994682;28;20030;-83
2021/10/22 04:05:13;;;;;;;2.08;0.40;;;;;;;25.25;25.65;94157.28;4982716;28;20038;-83
2021/10/22 04:07:39;;;;;;;1.00;0.50;;;;;;;25.26;25.87;94164.94;4992325;28;20034;-83
2021/10/22 04:10:05;;;;;;;0.50;0.50;;;;;;;25.28;25.94;94167.31;4965231;28;20038;-83
2021/10/22 04:12:33;;;;;;;0.63;0.50;;;;;;;25.25;25.64;94160.72;4983186;28;20057;-83
2021/10/22 04:15:02;;;;;;;0.68;0.40;;;;;;;25.26;25.87;94159.63;4975665;28;20029;-83
2021/10/22 04:17:27;;;;;;;0.63;0.50;;;;;;;25.24;25.88;94156.47;4979166;28;20039;-83
2021/10/22 04:19:57;;;;;;;0.90;0.40;;;;;;;25.27;25.79;94166.53;4975319;28;20054;-83
2021/10/22 04:22:23;;;;;;;;;;;;;;;25.48;25.54;94160.81;4991181;28;20046;-83
2021/10/22 04:24:48;;;;;;;0.32;0.30;;;;;;;25.34;25.90;94164.28;5001916;28;19922;-83
2021/10/22 04:27:14;;;;;;;1.00;0.40;;;;;;;25.31;25.54;94162.19;4996233;28;20116;-83
2021/10/22 04:29:39;;;;;;;0.40;0.40;;;;;;;25.26;25.65;94161.50;4994618;28;20042;-83
2021/10/22 04:32:05;;;;;;;0.73;0.35;;;;;;;25.27;25.74;94166.53;4993780;28;20060;-83
2021/10/22 04:34:35;;;;;;;0.52;0.40;;;;;;;25.25;25.71;94176.69;4975782;28;20026;-83
2021/10/22 04:37:21;;;;;;;;;;;;;;;25.47;25.48;94175.97;4992766;28;20030;-83
2021/10/22 04:42:30;;;;;;;0.50;0.30;;;;;;;25.29;26.18;94166.25;5016062;28;20143;-83
2021/10/22 04:44:55;;;;;;;0.38;0.30;;;;;;;25.28;26.15;94167.31;4962999;28;20042;-83
2021/10/22 04:47:23;;;;;;;0.50;0.30;;;;;;;25.18;26.23;94157.63;4969501;28;20057;-83
2021/10/22 04:49:48;;;;;;;1.08;0.38;;;;;;;25.23;26.17;94162.88;5008955;28;20033;-83
2021/10/22 04:52:14;;;;;;;0.73;0.40;;;;;;;25.24;26.31;94167.09;4992519;28;20033;-83
2021/10/22 04:54:41;;;;;;;1.35;0.50;;;;;;;25.23;26.28;94165.53;4967720;28;20026;-83
2021/10/22 04:57:07;;;;;;;0.40;0.40;;;;;;;25.24;26.04;94169.78;4993267;28;20026;-83
2021/10/22 04:59:32;;;;;;;0.57;0.40;;;;;;;25.14;26.48;94156.63;4980450;28;20032;-83
2021/10/22 05:02:01;;;;;;;0.63;0.40;;;;;;;25.27;26.45;94176.41;4991264;28;20036;-83
2021/10/22 05:04:26;;;;;;;0.60;0.40;;;;;;;25.23;26.39;94170.09;4991266;28;20043;-83
2021/10/22 05:06:54;;;;;;;1.02;0.30;;;;;;;25.25;26.25;94176.69;4996552;28;20049;-83
2021/10/22 05:09:19;;;;;;;0.40;0.40;;;;;;;25.24;26.51;94169.00;4996594;28;20034;-83
2021/10/22 05:11:45;;;;;;;0.63;0.40;;;;;;;25.28;26.21;94180.63;4977343;28;20104;-83
2021/10/22 05:14:10;;;;;;;0.30;0.20;;;;;;;25.27;26.28;94185.16;4980828;28;20029;-83
2021/10/22 05:16:36;;;;;;;0.40;0.38;;;;;;;25.27;26.51;94184.38;4986654;28;20025;-83
2021/10/22 05:19:04;;;;;;;0.68;0.40;;;;;;;25.35;26.20;94189.78;4975025;28;20026;-83
2021/10/22 05:21:31;;;;;;;0.40;0.32;;;;;;;25.28;26.37;94189.38;5017284;28;20030;-83
2021/10/22 05:23:57;;;;;;;0.70;0.38;;;;;;;25.31;26.26;94196.00;5011722;28;20027;-83
2021/10/22 05:26:23;;;;;;;0.40;0.40;;;;;;;25.32;26.27;94195.72;4989506;28;20033;-83
2021/10/22 05:28:48;;;;;;;1.27;0.40;;;;;;;25.32;26.69;94194.91;4998141;28;20108;-83
2021/10/22 05:31:16;;;;;;;0.40;0.40;;;;;;;25.38;26.55;94191.09;4992581;28;20038;-83
2021/10/22 05:33:41;;;;;;;0.30;0.30;;;;;;;25.31;26.62;94191.47;5008385;28;20030;-83
2021/10/22 05:36:09;;;;;;;1.80;0.35;;;;;;;25.36;26.58;94193.25;4992238;28;20048;-83
2021/10/22 05:38:34;;;;;;;0.65;0.30;;;;;;;25.32;26.47;94192.25;4991912;28;20030;-83
2021/10/22 05:41:00;;;;;;;0.85;0.50;;;;;;;25.33;26.69;94191.19;4978517;28;20187;-83
2021/10/22 05:43:28;;;;;;;0.60;0.30;;;;;;;25.35;26.85;94197.00;4973840;28;20026;-83
2021/10/22 05:45:55;;;;;;;0.47;0.30;;;;;;;25.40;26.61;94201.41;4994444;28;20048;-83
2021/10/22 05:48:21;;;;;;;1.02;0.30;;;;;;;25.34;26.50;94198.88;4996070;28;20049;-83
2021/10/22 05:50:49;;;;;;;0.50;0.32;;;;;;;25.34;27.02;94206.84;4989910;28;20027;-83
2021/10/22 05:53:14;;;;;;;0.90;0.40;;;;;;;25.38;26.99;94214.22;4975932;28;20042;-83
2021/10/22 05:55:42;;;;;;;0.60;0.50;;;;;;;25.36;26.68;94215.34;4991250;28;20502;-83
2021/10/22 05:58:09;;;;;;;0.55;0.30;;;;;;;25.34;26.85;94201.53;4998447;28;20034;-83
2021/10/22 06:00:35;;;;;;;0.60;0.40;;;;;;;25.38;27.04;94203.59;4990359;28;20036;-83
2021/10/22 06:03:02;;;;;;;0.40;0.40;;;;;;;25.38;27.09;94204.41;4989507;28;20022;-83
2021/10/22 06:05:28;;;;;;;1.38;0.50;;;;;;;25.39;26.97;94207.84;4983908;28;20108;-83
2021/10/22 06:07:53;;;;;;;0.75;0.40;;;;;;;25.39;27.33;94208.63;4992428;28;20165;-83
2021/10/22 06:10:24;;;;;;;0.60;0.40;;;;;;;25.41;26.94;94214.44;4982019;28;20045;-83
2021/10/22 06:12:49;;;;;;;0.75;0.40;;;;;;;25.40;26.83;94214.72;5014289;28;20037;-83
2021/10/22 06:15:17;;;;;;;0.38;0.20;;;;;;;25.48;26.78;94220.16;4974031;28;20027;-83
2021/10/22 06:17:45;;;;;;;0.65;0.30;;;;;;;25.43;26.76;94230.13;4985996;28;20039;-83
2021/10/22 06:20:14;;;;;;;0.40;0.40;;;;;;;25.43;26.94;94235.44;4982523;28;20088;-83
2021/10/22 06:23:53;;;;;;;1.50;0.40;;;;;;;25.43;26.86;94233.56;4970034;28;20026;-83
2021/10/22 06:25:42;;;;;;;0.55;0.40;;;;;;;25.44;26.96;94237.03;4991405;28;20122;-83
2021/10/22 06:28:15;;;;;;;0.30;0.30;;;;;;;25.51;26.57;94250.72;4972728;28;20116;-83
2021/10/22 06:30:41;;;;;;;0.60;0.40;;;;;;;25.44;26.81;94248.47;4961477;28;20029;-83
2021/10/22 06:33:06;;;;;;;0.38;0.38;;;;;;;25.44;26.82;94251.13;4963896;28;20033;-83
2021/10/22 06:35:32;;;;;;;1.95;0.55;;;;;;;25.45;26.93;94257.22;4963337;28;20041;-83
2021/10/22 06:38:00;;;;;;;1.08;0.45;;;;;;;25.47;26.81;94266.50;4973481;28;20029;-84
2021/10/22 06:40:25;;;;;;;0.45;0.38;;;;;;;25.47;26.79;94266.50;4987497;28;20040;-83
2021/10/22 06:42:51;;;;;;;0.75;0.40;;;;;;;25.45;27.10;94265.22;4984337;28;20030;-83
2021/10/22 06:45:19;;;;;;;0.70;0.40;;;;;;;25.47;26.88;94271.03;4994554;28;20030;-83
2021/10/22 06:47:47;;;;;;;0.68;0.40;;;;;;;25.48;26.92;94285.94;5009115;28;20031;-83
2021/10/22 06:50:15;;;;;;;1.05;0.50;;;;;;;25.47;26.84;94282.47;4992603;28;20030;-83
2021/10/22 06:52:42;;;;;;;0.77;0.40;;;;;;;25.48;27.08;94291.25;4976376;28;20079;-84
2021/10/22 06:55:08;;;;;;;0.55;0.45;;;;;;;25.48;27.14;94294.69;5010247;28;20042;-83
2021/10/22 06:57:41;;;;;;;0.60;0.40;;;;;;;25.53;27.34;94291.97;4988849;28;20118;-83
2021/10/22 07:00:12;;;;;;;0.63;0.30;;;;;;;25.51;27.11;94293.31;4990637;28;20053;-83
2021/10/22 07:03:00;;;;;;;0.70;0.38;;;;;;;25.58;26.83;94304.38;5005484;28;20026;-83
2021/10/22 07:07:57;;;;;;;0.47;0.35;;;;;;;25.46;27.24;94312.06;4993203;28;20113;-83
2021/10/22 07:10:23;;;;;;;0.60;0.35;;;;;;;25.48;27.58;94321.31;5000273;28;20158;-83
2021/10/22 07:12:53;;;;;;;1.33;0.55;;;;;;;25.44;27.96;94325.66;5002841;28;20088;-83
2021/10/22 07:15:18;;;;;;;;;;;;;;;25.67;26.92;94331.91;4996237;28;20022;-83
2021/10/22 07:17:45;;;;;;;0.60;0.40;;;;;;;25.50;27.95;94329.03;5001605;28;19950;-83
2021/10/22 07:20:12;;;;;;;1.02;0.40;;;;;;;25.49;28.26;94332.75;4994433;28;20275;-83
2021/10/22 07:22:50;;;;;;;0.95;0.47;;;;;;;25.47;28.38;94337.59;4996984;28;20409;-83
2021/10/22 07:25:18;;;;;;;0.63;0.52;;;;;;;25.42;28.44;94333.16;4989612;28;20036;-83
2021/10/22 07:27:43;;;;;;;0.40;0.32;;;;;;;25.42;28.44;94343.00;4979235;28;20120;-83
2021/10/22 07:30:09;;;;;;;0.40;0.40;;;;;;;25.43;28.83;94349.91;4964423;28;20038;-83
2021/10/22 07:32:35;;;;;;;0.50;0.40;;;;;;;25.39;28.60;94351.56;4986524;28;20044;-83
2021/10/22 07:35:00;;;;;;;1.00;0.40;;;;;;;25.39;28.70;94354.25;5006053;28;20033;-83
2021/10/22 07:37:26;;;;;;;0.60;0.43;;;;;;;25.42;28.56;94364.28;5009367;28;20084;-83
2021/10/22 07:39:51;;;;;;;0.60;0.40;;;;;;;25.41;29.10;94368.03;5025205;28;20393;-83
2021/10/22 07:42:17;;;;;;;0.68;0.30;;;;;;;25.41;28.63;94365.38;4992743;28;20034;-83
2021/10/22 07:44:42;;;;;;;0.60;0.40;;;;;;;25.44;28.76;94368.25;4999408;28;20030;-83
2021/10/22 07:47:08;;;;;;;0.68;0.47;;;;;;;25.42;28.96;94372.28;4994532;28;20089;-83
2021/10/22 07:49:35;;;;;;;0.57;0.38;;;;;;;25.41;28.98;94371.50;4999466;28;20030;-83
2021/10/22 07:52:01;;;;;;;0.30;0.30;;;;;;;25.44;29.17;94373.56;5004013;28;20022;-83
2021/10/22 07:54:26;;;;;;;0.40;0.35;;;;;;;25.41;29.04;94381.34;4978671;28;20041;-83
2021/10/22 07:56:54;;;;;;;0.45;0.40;;;;;;;25.43;29.44;94382.63;4978844;28;20038;-83
2021/10/22 07:59:19;;;;;;;0.30;0.30;;;;;;;25.44;28.96;94375.47;4981798;28;20041;-83
2021/10/22 08:01:47;;;;;;;0.45;0.35;;;;;;;25.43;29.03;94382.63;4977387;28;20034;-83
2021/10/22 08:04:15;;;;;;;1.30;0.40;;;;;;;25.50;28.96;94387.59;4980038;28;20034;-83
2021/10/22 08:06:42;;;;;;;0.82;0.38;;;;;;;25.44;29.06;94388.78;5001030;28;20045;-83
2021/10/22 08:09:08;;;;;;;0.73;0.32;;;;;;;25.46;29.46;94395.38;4983195;28;20042;-83
2021/10/22 08:11:35;;;;;;;0.43;0.40;;;;;;;25.44;29.16;94397.53;4982534;28;20093;-83
2021/10/22 08:14:00;;;;;;;0.32;0.32;;;;;;;25.46;29.02;94398.03;5000506;28;20034;-83
2021/10/22 08:16:26;;;;;;;0.40;0.40;;;;;;;25.45;29.42;94406.31;4977972;28;20040;-83
2021/10/22 08:18:54;;;;;;;0.32;0.30;;;;;;;25.48;29.00;94411.06;4999511;28;20033;-83
2021/10/22 08:21:34;;;;;;;0.40;0.30;;;;;;;25.48;29.22;94414.50;5001630;28;20030;-83
2021/10/22 08:24:00;;;;;;;0.52;0.45;;;;;;;25.49;29.38;94420.63;4993509;28;20042;-84
2021/10/22 08:26:25;;;;;;;0.63;0.30;;;;;;;25.49;29.12;94426.75;4997378;28;20096;-83
2021/10/22 08:28:51;;;;;;;0.63;0.40;;;;;;;25.50;29.28;94416.88;4969714;28;20025;-83
2021/10/22 08:31:16;;;;;;;0.60;0.40;;;;;;;25.51;29.08;94416.59;4975213;28;20053;-83
2021/10/22 08:33:42;;;;;;;0.45;0.30;;;;;;;25.51;29.13;94419.25;5010945;28;20092;-83
2021/10/22 08:36:08;;;;;;;0.77;0.40;;;;;;;25.51;29.22;94421.13;4991120;28;20037;-83
2021/10/22 08:38:37;;;;;;;0.50;0.40;;;;;;;25.51;29.05;94413.13;4975041;28;20060;-83
2021/10/22 08:41:02;;;;;;;0.43;0.30;;;;;;;25.53;29.00;94425.09;4998712;28;20054;-83
2021/10/22 08:43:30;;;;;;;0.43;0.35;;;;;;;25.49;29.25;94421.44;4987109;28;20069;-83
2021/10/22 08:45:56;;;;;;;0.60;0.35;;;;;;;25.53;28.86;94429.59;4998750;28;20101;-83
2021/10/22 08:48:22;;;;;;;0.20;0.20;;;;;;;25.54;29.25;94436.50;5002344;28;20042;-83
2021/10/22 08:50:48;;;;;;;0.30;0.25;;;;;;;25.49;29.05;94432.06;4985415;28;20037;-84
2021/10/22 08:53:14;;;;;;;0.30;0.30;;;;;;;25.54;29.08;94449.81;4995411;28;20042;-83
2021/10/22 08:55:39;;;;;;;0.52;0.32;;;;;;;25.52;29.08;94444.00;4988944;28;20038;-83
2021/10/22 08:58:05;;;;;;;0.30;0.20;;;;;;;25.53;28.80;94445.56;4981912;28;20033;-83
2021/10/22 09:00:32;;;;;;;0.30;0.30;;;;;;;25.53;28.86;94451.72;4978541;28;20116;-83
2021/10/22 09:03:18;;;;;;;0.10;0.10;;;;;;;25.64;28.63;94452.31;5005315;28;20110;-83
2021/10/22 09:06:01;;;;;;;0.30;0.30;;;;;;;25.59;28.49;94448.94;4984999;28;20029;-83
2021/10/22 09:08:37;;;;;;;0.20;0.20;;;;;;;25.53;28.85;94456.22;4974364;28;20026;-83
2021/10/22 09:11:18;;;;;;;0.28;0.20;;;;;;;25.59;28.61;94470.25;4968316;28;20022;-83
2021/10/22 09:13:43;;;;;;;0.30;0.30;;;;;;;25.54;28.79;94473.78;4997380;28;20061;-83
2021/10/22 09:16:22;;;;;;;0.40;0.20;;;;;;;25.61;28.43;94474.22;4975472;28;20030;-83
2021/10/22 09:18:48;;;;;;;0.20;0.20;;;;;;;25.50;29.12;94470.13;4969246;28;20026;-83
2021/10/22 09:21:14;;;;;;;0.28;0.28;;;;;;;25.53;29.08;94477.53;4963495;28;20033;-83
2021/10/22 09:23:41;;;;;;;0.30;0.30;;;;;;;25.51;28.69;94480.50;4991189;28;20106;-83
2021/10/22 09:26:15;;;;;;;0.30;0.30;;;;;;;25.60;28.79;94493.94;4968918;28;20038;-83
2021/10/22 09:28:40;;;;;;;0.20;0.20;;;;;;;25.51;29.19;94490.34;5003047;28;20026;-83
2021/10/22 09:31:17;;;;;;;0.28;0.28;;;;;;;25.59;28.73;94494.22;4990057;28;20029;-83
2021/10/22 09:33:59;;;;;;;0.20;0.20;;;;;;;25.59;28.58;94500.34;4965459;28;20018;-83
2021/10/22 09:36:34;;;;;;;0.43;0.22;;;;;;;25.60;28.56;94507.25;5000925;28;20026;-83
2021/10/22 09:39:22;;;;;;;0.32;0.30;;;;;;;25.59;28.59;94502.19;4974949;28;20032;-83
2021/10/22 09:41:58;;;;;;;0.20;0.20;;;;;;;25.59;28.70;94508.34;4986923;28;20033;-83
2021/10/22 09:44:24;;;;;;;0.30;0.20;;;;;;;25.52;29.07;94503.38;4972683;28;20034;-83
2021/10/22 09:47:11;;;;;;;0.30;0.30;;;;;;;25.62;28.77;94513.06;4980929;28;20112;-83
2021/10/22 09:49:41;;;;;;;0.20;0.20;;;;;;;25.52;29.20;94518.56;4995888;28;20054;-83
2021/10/22 09:52:12;;;;;;;0.30;0.30;;;;;;;25.60;28.73;94520.56;4983023;28;20034;-83
2021/10/22 09:54:38;;;;;;;0.30;0.30;;;;;;;25.52;29.07;94522.00;5005837;28;20031;-83
2021/10/22 09:57:05;;;;;;;0.25;0.20;;;;;;;25.51;29.02;94531.09;4978617;28;20034;-83
2021/10/22 09:59:32;;;;;;;0.20;0.20;;;;;;;25.52;28.93;94531.88;4963950;28;20040;-84
2021/10/22 10:01:58;;;;;;;0.20;0.20;;;;;;;25.51;29.05;94540.94;4988478;28;20109;-83
2021/10/22 10:04:25;;;;;;;0.20;0.20;;;;;;;25.52;29.35;94540.63;4962006;28;20026;-83
2021/10/22 10:06:57;;;;;;;0.30;0.30;;;;;;;25.57;29.15;94537.13;4998927;28;20041;-83
2021/10/22 10:09:27;;;;;;;0.30;0.30;;;;;;;25.52;29.29;94534.53;4994170;28;20033;-83
2021/10/22 10:11:54;;;;;;;0.30;0.30;;;;;;;25.56;29.30;94543.53;4990830;28;20027;-83
2021/10/22 10:14:21;;;;;;;0.25;0.25;;;;;;;25.53;29.36;94536.91;4990117;28;20092;-83
2021/10/22 10:16:48;;;;;;;0.20;0.20;;;;;;;25.54;29.17;94543.03;4986843;28;20034;-83
2021/10/22 10:19:29;;;;;;;0.20;0.20;;;;;;;25.65;29.06;94554.31;4980689;28;20046;-84
2021/10/22 10:22:07;;;;;;;0.32;0.20;;;;;;;25.63;29.06;94546.63;4996958;28;20085;-83
2021/10/22 10:24:41;;;;;;;0.20;0.20;;;;;;;25.66;28.79;94554.00;5003161;28;20034;-83
2021/10/22 10:27:14;;;;;;;0.30;0.30;;;;;;;25.66;29.11;94561.22;4980518;28;20026;-83
2021/10/22 10:29:45;;;;;;;0.68;0.30;;;;;;;25.64;28.87;94553.50;5014197;28;20034;-83
2021/10/22 10:32:12;;;;;;;0.30;0.30;;;;;;;25.58;29.02;94548.56;5003240;28;20030;-83
2021/10/22 10:34:38;;;;;;;0.38;0.38;;;;;;;25.59;29.25;94555.47;4971773;28;20028;-83
2021/10/22 10:37:29;;;;;;;0.30;0.20;;;;;;;25.65;28.98;94562.31;5002203;28;20093;-83
2021/10/22 10:40:01;;;;;;;0.30;0.30;;;;;;;25.65;28.76;94560.44;4996251;28;20032;-83
2021/10/22 10:42:30;;;;;;;0.32;0.30;;;;;;;25.62;29.08;94565.53;4996106;28;20054;-83
2021/10/22 10:45:07;;;;;;;0.30;0.30;;;;;;;25.66;29.01;94567.34;5003924;28;20113;-83
2021/10/22 10:47:40;;;;;;;0.20;0.20;;;;;;;25.67;28.95;94562.81;5007924;28;20028;-82
2021/10/22 10:50:07;;;;;;;0.20;0.20;;;;;;;25.58;28.98;94562.66;5005337;28;20034;-82
2021/10/22 10:52:42;;;;;;;0.20;0.20;;;;;;;25.68;28.88;94570.53;4991117;28;20116;-82
2021/10/22 10:55:14;;;;;;;0.20;0.20;;;;;;;25.69;29.05;94572.09;5001536;28;20061;-82
2021/10/22 10:57:48;;;;;;;0.20;0.20;;;;;;;25.67;28.70;94568.94;5009559;28;20041;-82
2021/10/22 11:00:15;;;;;;;0.95;0.30;;;;;;;25.58;28.98;94567.22;5004314;28;20104;-82
2021/10/22 11:03:04;;;;;;;0.20;0.20;;;;;;;25.71;28.59;94572.59;4999644;28;20032;-82
2021/10/22 11:05:42;;;;;;;0.23;0.23;;;;;;;25.72;28.79;94571.53;4974254;28;20043;-83
2021/10/22 11:08:16;;;;;;;0.20;0.20;;;;;;;25.70;28.87;94575.53;4974526;28;20046;-83
2021/10/22 11:13:55;;;;;;;0.40;0.30;;;;;;;25.70;28.40;94572.88;4980840;28;20037;-83
2021/10/22 11:16:41;;;;;;;0.30;0.30;;;;;;;25.60;28.54;94570.38;4945318;28;20042;-83
2021/10/22 11:19:14;;;;;;;0.30;0.30;;;;;;;25.61;28.87;94571.94;4997822;28;20134;-83
2021/10/22 11:22:02;;;;;;;0.20;0.20;;;;;;;25.71;28.61;94575.25;4945804;28;20062;-83
2021/10/22 11:24:29;;;;;;;0.20;0.20;;;;;;;25.59;28.90;94564.25;4988405;28;20041;-83
2021/10/22 11:27:01;;;;;;;0.22;0.22;;;;;;;25.61;29.03;94567.44;4960949;28;20053;-83
2021/10/22 11:29:27;;;;;;;0.20;0.20;;;;;;;25.56;28.90;94562.16;4975083;28;20046;-83
2021/10/22 11:31:58;;;;;;;0.30;0.30;;;;;;;25.57;28.74;94569.09;4974521;28;20088;-82
2021/10/22 11:34:28;;;;;;;0.20;0.20;;;;;;;25.66;28.58;94566.53;4977708;28;20060;-83
2021/10/22 11:36:59;;;;;;;0.35;0.35;;;;;;;25.60;28.59;94565.81;4959956;28;20066;-83
2021/10/22 11:39:37;;;;;;;0.30;0.20;;;;;;;25.59;28.96;94572.25;4961552;28;20121;-83
2021/10/22 11:42:06;;;;;;;0.30;0.30;;;;;;;25.60;28.96;94573.03;4976912;28;20038;-83
2021/10/22 11:44:35;;;;;;;0.20;0.20;;;;;;;25.58;28.90;94573.31;4984461;28;20030;-83
2021/10/22 11:47:01;;;;;;;0.20;0.20;;;;;;;25.58;28.90;94573.31;4991651;28;20120;-83